Time;durP1;ratioP1;P1;durP2;ratioP2;P2;SDS_P1;SDS_P2;PMS_P1;PMS_P2;Temp;Humidity;BMP_temperature;BMP_pressure;BME280_temperature;BME280_humidity;BME280_pressure;Samples;Min_cycle;Max_cycle;Signal;HPM_P1;HPM_P2
2022/07/12 00:00:00;;;;;;;1.20;1.10;;;;;;;;;;5075240;28;20401;-80
2022/07/12 00:02:26;;;;;;;1.60;1.10;;;;;;;;;;5075317;28;20855;-80
2022/07/12 00:04:52;;;;;;;1.60;1.20;;;;;;;;;;5075110;28;20383;-80
2022/07/12 00:07:18;;;;;;;1.30;1.20;;;;;;;;;;5073952;28;20371;-80
2022/07/12 00:09:44;;;;;;;1.92;1.10;;;;;;;;;;5075146;28;20722;-80
2022/07/12 00:12:10;;;;;;;1.17;1.08;;;;;;;;;;5075029;28;20987;-79
2022/07/12 00:14:36;;;;;;;1.20;1.15;;;;;;;;;;5075117;28;20382;-80
2022/07/12 00:17:04;;;;;;;1.37;1.27;;;;;;;;;;5074975;28;20880;-80
2022/07/12 00:19:30;;;;;;;1.30;1.20;;;;;;;;;;5075033;28;20451;-80
2022/07/12 00:21:56;;;;;;;1.30;1.20;;;;;;;;;;5074846;28;20857;-80
2022/07/12 00:24:22;;;;;;;2.70;1.20;;;;;;;;;;5074809;28;20455;-80
2022/07/12 00:26:48;;;;;;;1.60;1.15;;;;;;;;;;5074813;28;20380;-79
2022/07/12 00:29:14;;;;;;;2.15;1.20;;;;;;;;;;5073512;28;20441;-79
2022/07/12 00:31:40;;;;;;;2.13;1.30;;;;;;;;;;5074665;28;20492;-79
2022/07/12 00:34:06;;;;;;;1.10;1.10;;;;;;;;;;5074482;28;20810;-80
2022/07/12 00:36:32;;;;;;;2.58;1.35;;;;;;;;;;5074510;28;20376;-80
2022/07/12 00:38:58;;;;;;;1.90;1.42;;;;;;;;;;5092218;28;20373;-80
2022/07/12 00:41:24;;;;;;;1.50;1.40;;;;;;;;;;5094845;28;20378;-80
2022/07/12 00:43:50;;;;;;;1.40;1.30;;;;;;;;;;5084264;28;20383;-79
2022/07/12 00:46:19;;;;;;;1.50;1.40;;;;;;;;;;5074578;28;20445;-80
2022/07/12 00:48:45;;;;;;;1.40;1.30;;;;;;;;;;5074510;28;20958;-79
2022/07/12 00:51:11;;;;;;;2.08;1.38;;;;;;;;;;5074984;28;20880;-79
2022/07/12 00:53:37;;;;;;;6.13;1.50;;;;;;;;;;5074370;28;20372;-79
2022/07/12 00:56:04;;;;;;;1.60;1.50;;;;;;;;;;5072832;28;20816;-79
2022/07/12 00:58:31;;;;;;;1.70;1.60;;;;;;;;;;5074747;28;20392;-79
2022/07/12 01:00:57;;;;;;;1.95;1.45;;;;;;;;;;5074249;28;20816;-79
2022/07/12 01:03:23;;;;;;;1.42;1.33;;;;;;;;;;5074088;28;20376;-80
2022/07/12 01:05:50;;;;;;;1.98;1.42;;;;;;;;;;5073771;28;20930;-80
2022/07/12 01:08:16;;;;;;;1.63;1.52;;;;;;;;;;5090875;28;20405;-79
2022/07/12 01:10:44;;;;;;;1.85;1.65;;;;;;;;;;5094193;28;20378;-79
2022/07/12 01:13:10;;;;;;;1.70;1.60;;;;;;;;;;5094154;28;20795;-79
2022/07/12 01:15:36;;;;;;;1.83;1.73;;;;;;;;;;5094324;28;20848;-79
2022/07/12 01:18:03;;;;;;;1.63;1.52;;;;;;;;;;5094428;28;20378;-79
2022/07/12 01:20:29;;;;;;;1.70;1.60;;;;;;;;;;5094025;28;20367;-79
2022/07/12 01:22:59;;;;;;;1.92;1.73;;;;;;;;;;5093999;28;20370;-80
2022/07/12 01:25:25;;;;;;;1.70;1.60;;;;;;;;;;5093729;28;20511;-80
2022/07/12 01:27:51;;;;;;;1.70;1.60;;;;;;;;;;5094017;28;20378;-79
2022/07/12 01:30:18;;;;;;;1.60;1.50;;;;;;;;;;5093719;28;20377;-80
2022/07/12 01:32:44;;;;;;;1.90;1.77;;;;;;;;;;5093830;28;20406;-79
2022/07/12 01:35:10;;;;;;;1.70;1.60;;;;;;;;;;5087590;28;20472;-79
2022/07/12 01:37:37;;;;;;;1.70;1.60;;;;;;;;;;5066129;28;20384;-79
2022/07/12 01:40:04;;;;;;;1.70;1.60;;;;;;;;;;5092398;28;20374;-80
2022/07/12 01:42:31;;;;;;;1.90;1.80;;;;;;;;;;5093533;28;20386;-79
2022/07/12 01:44:57;;;;;;;1.85;1.70;;;;;;;;;;5073863;28;20403;-79
2022/07/12 01:47:27;;;;;;;2.05;1.77;;;;;;;;;;5073244;28;20387;-79
2022/07/12 01:49:53;;;;;;;1.77;1.58;;;;;;;;;;5073410;28;20382;-79
2022/07/12 01:52:20;;;;;;;1.85;1.73;;;;;;;;;;5072996;28;20435;-80
2022/07/12 01:54:46;;;;;;;1.77;1.67;;;;;;;;;;5073170;28;20384;-79
2022/07/12 01:57:12;;;;;;;1.80;1.70;;;;;;;;;;5071739;28;20425;-79
2022/07/12 01:59:39;;;;;;;1.90;1.70;;;;;;;;;;5073031;28;20376;-79
2022/07/12 02:02:05;;;;;;;1.75;1.65;;;;;;;;;;5065103;28;20918;-79
2022/07/12 02:04:31;;;;;;;2.00;1.90;;;;;;;;;;5072868;28;20383;-79
2022/07/12 02:06:57;;;;;;;2.08;1.90;;;;;;;;;;5072856;28;20455;-78
2022/07/12 02:09:24;;;;;;;2.22;2.08;;;;;;;;;;5071597;28;20382;-79
2022/07/12 02:11:50;;;;;;;2.03;1.70;;;;;;;;;;5071748;28;20904;-78
2022/07/12 02:14:16;;;;;;;2.17;2.00;;;;;;;;;;5072691;28;20876;-79
2022/07/12 02:16:43;;;;;;;2.28;2.10;;;;;;;;;;5072191;28;20849;-79
2022/07/12 02:19:10;;;;;;;2.20;2.10;;;;;;;;;;5072785;28;20380;-79
2022/07/12 02:21:36;;;;;;;2.03;1.83;;;;;;;;;;5071366;28;20392;-79
2022/07/12 02:24:03;;;;;;;2.00;1.90;;;;;;;;;;5072500;28;20380;-79
2022/07/12 02:26:29;;;;;;;1.90;1.80;;;;;;;;;;5072617;28;20476;-79
2022/07/12 02:28:56;;;;;;;2.80;2.17;;;;;;;;;;5071220;28;20734;-79
2022/07/12 02:31:22;;;;;;;2.55;1.85;;;;;;;;;;5072475;28;20409;-79
2022/07/12 02:33:48;;;;;;;1.95;1.75;;;;;;;;;;5072337;28;20387;-79
2022/07/12 02:36:14;;;;;;;3.28;1.67;;;;;;;;;;5080947;28;20375;-80
2022/07/12 02:38:40;;;;;;;1.83;1.73;;;;;;;;;;5092653;28;20377;-80
2022/07/12 02:41:06;;;;;;;2.80;1.70;;;;;;;;;;5092688;28;20878;-80
2022/07/12 02:43:32;;;;;;;1.88;1.77;;;;;;;;;;5084857;28;20416;-80
2022/07/12 02:46:08;;;;;;;1.90;1.70;;;;;;;;;;5072442;28;20411;-80
2022/07/12 02:48:35;;;;;;;1.85;1.63;;;;;;;;;;5071283;28;20530;-80
2022/07/12 02:51:01;;;;;;;2.20;2.00;;;;;;;;;;5071131;28;20418;-80
2022/07/12 02:53:27;;;;;;;2.17;1.98;;;;;;;;;;5072175;28;20371;-80
2022/07/12 02:55:53;;;;;;;2.28;1.90;;;;;;;;;;5072176;28;20379;-80
2022/07/12 02:58:20;;;;;;;1.83;1.73;;;;;;;;;;5072214;28;20380;-80
2022/07/12 03:00:46;;;;;;;1.90;1.80;;;;;;;;;;5072276;28;20399;-80
2022/07/12 03:03:12;;;;;;;2.30;1.88;;;;;;;;;;5072132;28;20370;-80
2022/07/12 03:05:38;;;;;;;1.83;1.73;;;;;;;;;;5081238;28;20385;-80
2022/07/12 03:08:05;;;;;;;1.83;1.73;;;;;;;;;;5092460;28;20374;-80
2022/07/12 03:10:31;;;;;;;2.17;1.98;;;;;;;;;;5092199;28;20416;-80
2022/07/12 03:12:57;;;;;;;1.90;1.80;;;;;;;;;;5092257;28;20374;-80
2022/07/12 03:15:23;;;;;;;1.80;1.70;;;;;;;;;;5092142;28;20388;-80
2022/07/12 03:17:49;;;;;;;1.77;1.63;;;;;;;;;;5092203;28;20434;-80
2022/07/12 03:20:15;;;;;;;2.05;1.90;;;;;;;;;;5092139;28;20408;-80
2022/07/12 03:22:41;;;;;;;1.88;1.77;;;;;;;;;;5092157;28;20384;-80
2022/07/12 03:25:07;;;;;;;1.90;1.80;;;;;;;;;;5092252;28;20839;-80
2022/07/12 03:27:34;;;;;;;2.08;1.98;;;;;;;;;;5083766;28;20857;-80
2022/07/12 03:30:00;;;;;;;1.80;1.70;;;;;;;;;;5083196;28;20382;-80
2022/07/12 03:32:26;;;;;;;2.33;2.17;;;;;;;;;;5095991;28;20416;-80
2022/07/12 03:34:52;;;;;;;2.28;1.90;;;;;;;;;;5096019;28;20473;-80
2022/07/12 03:37:18;;;;;;;2.00;1.90;;;;;;;;;;5096006;28;20454;-80
2022/07/12 03:39:44;;;;;;;2.05;1.83;;;;;;;;;;5095961;28;20865;-79
2022/07/12 03:42:13;;;;;;;2.22;2.03;;;;;;;;;;5095958;28;20385;-80
2022/07/12 03:44:39;;;;;;;2.28;2.10;;;;;;;;;;5078612;28;20413;-80
2022/07/12 03:47:05;;;;;;;2.20;2.10;;;;;;;;;;5075664;28;20379;-80
2022/07/12 03:49:31;;;;;;;2.50;2.30;;;;;;;;;;5075555;28;20372;-80
2022/07/12 03:51:57;;;;;;;2.45;2.25;;;;;;;;;;5075552;28;20916;-80
2022/07/12 03:54:23;;;;;;;2.45;2.28;;;;;;;;;;5075332;28;20379;-80
2022/07/12 03:59:34;;;;;;;2.20;2.00;;;;;;;;;;5075304;28;20393;-79
2022/07/12 04:02:01;;;;;;;2.30;2.10;;;;;;;;;;5075599;28;20607;-80
2022/07/12 04:04:27;;;;;;;2.60;2.40;;;;;;;;;;5075354;28;20384;-80
2022/07/12 04:06:53;;;;;;;2.10;2.00;;;;;;;;;;5075662;28;20930;-80
2022/07/12 04:09:20;;;;;;;2.72;2.50;;;;;;;;;;5075202;28;20418;-80
2022/07/12 04:11:46;;;;;;;2.53;2.33;;;;;;;;;;5074988;28;20411;-80
2022/07/12 04:14:15;;;;;;;2.20;2.10;;;;;;;;;;5075036;28;20374;-80
2022/07/12 04:16:41;;;;;;;2.10;2.00;;;;;;;;;;5072650;28;20727;-80
2022/07/12 04:19:09;;;;;;;2.33;2.13;;;;;;;;;;5074229;28;20388;-80
2022/07/12 04:21:35;;;;;;;2.28;2.17;;;;;;;;;;5074076;28;20718;-80
2022/07/12 04:24:01;;;;;;;2.30;2.10;;;;;;;;;;5073558;28;20383;-80
2022/07/12 04:26:27;;;;;;;2.20;2.10;;;;;;;;;;5074427;28;20375;-80
2022/07/12 04:28:53;;;;;;;2.45;2.28;;;;;;;;;;5074698;28;20384;-80
2022/07/12 04:31:19;;;;;;;3.25;2.58;;;;;;;;;;5074683;28;20411;-80
2022/07/12 04:33:45;;;;;;;3.78;2.25;;;;;;;;;;5074645;28;20380;-80
2022/07/12 04:36:11;;;;;;;2.15;2.00;;;;;;;;;;5073384;28;20936;-80
2022/07/12 04:38:37;;;;;;;2.55;2.35;;;;;;;;;;5074032;28;20467;-80
2022/07/12 04:41:03;;;;;;;2.50;2.30;;;;;;;;;;5080832;28;20431;-80
2022/07/12 04:43:29;;;;;;;2.25;2.05;;;;;;;;;;5087345;28;20388;-80
2022/07/12 04:45:55;;;;;;;2.50;2.30;;;;;;;;;;5074194;28;20388;-80
2022/07/12 04:48:21;;;;;;;2.03;1.92;;;;;;;;;;5074432;28;20387;-80
2022/07/12 04:50:47;;;;;;;2.50;2.30;;;;;;;;;;5074275;28;20387;-80
2022/07/12 04:53:13;;;;;;;2.25;2.15;;;;;;;;;;5073009;28;20748;-80
2022/07/12 04:55:39;;;;;;;3.22;2.33;;;;;;;;;;5074616;28;20449;-80
2022/07/12 04:58:05;;;;;;;2.95;2.60;;;;;;;;;;5075950;28;20875;-80
2022/07/12 05:00:31;;;;;;;3.55;2.45;;;;;;;;;;5094433;28;20378;-80
2022/07/12 05:02:57;;;;;;;2.00;1.90;;;;;;;;;;5094265;28;20851;-80
2022/07/12 05:05:23;;;;;;;2.35;2.15;;;;;;;;;;5094251;28;20426;-80
2022/07/12 05:07:49;;;;;;;3.03;2.15;;;;;;;;;;5093309;28;20451;-80
2022/07/12 05:10:15;;;;;;;2.15;1.95;;;;;;;;;;5094126;28;20378;-80
2022/07/12 05:12:41;;;;;;;2.72;2.25;;;;;;;;;;5094082;28;20405;-80
2022/07/12 05:15:07;;;;;;;2.35;2.00;;;;;;;;;;5093950;28;20374;-80
2022/07/12 05:17:34;;;;;;;2.25;2.08;;;;;;;;;;5089484;28;20370;-80
2022/07/12 05:20:00;;;;;;;2.25;2.05;;;;;;;;;;5073123;28;20380;-79
2022/07/12 05:22:26;;;;;;;2.38;2.20;;;;;;;;;;5073184;28;20406;-79
2022/07/12 05:24:52;;;;;;;2.67;2.47;;;;;;;;;;5073184;28;20459;-79
2022/07/12 05:27:18;;;;;;;2.40;2.20;;;;;;;;;;5073106;28;20380;-79
2022/07/12 05:29:44;;;;;;;2.50;2.30;;;;;;;;;;5073139;28;20570;-78
2022/07/12 05:32:10;;;;;;;2.20;2.00;;;;;;;;;;5072819;28;20502;-81
2022/07/12 05:34:37;;;;;;;3.17;2.35;;;;;;;;;;5066171;28;20440;-80
2022/07/12 05:37:04;;;;;;;2.20;2.00;;;;;;;;;;5071327;28;20801;-80
2022/07/12 05:39:30;;;;;;;2.80;2.30;;;;;;;;;;5068260;28;20387;-80
2022/07/12 05:41:56;;;;;;;2.90;2.60;;;;;;;;;;5072913;28;20812;-80
2022/07/12 05:44:22;;;;;;;2.72;2.40;;;;;;;;;;5073098;28;20398;-80
2022/07/12 05:46:48;;;;;;;2.53;2.20;;;;;;;;;;5073279;28;20390;-80
2022/07/12 05:49:14;;;;;;;3.35;2.30;;;;;;;;;;5073255;28;20438;-80
2022/07/12 05:54:25;;;;;;;2.10;2.00;;;;;;;;;;5073254;28;20402;-80
2022/07/12 05:56:51;;;;;;;2.83;2.60;;;;;;;;;;5065181;28;20377;-81
2022/07/12 05:59:17;;;;;;;2.80;2.22;;;;;;;;;;5065464;28;20371;-80
2022/07/12 06:01:44;;;;;;;3.70;2.63;;;;;;;;;;5072947;28;20391;-80
2022/07/12 06:04:10;;;;;;;2.35;2.25;;;;;;;;;;5066022;28;20850;-81
2022/07/12 06:06:36;;;;;;;2.63;2.42;;;;;;;;;;5072894;28;20718;-80
2022/07/12 06:09:02;;;;;;;2.80;2.30;;;;;;;;;;5070576;28;20395;-80
2022/07/12 06:11:28;;;;;;;2.58;2.38;;;;;;;;;;5072864;28;20500;-80
2022/07/12 06:13:54;;;;;;;2.70;2.50;;;;;;;;;;5062377;28;20867;-81
2022/07/12 06:16:21;;;;;;;3.20;3.00;;;;;;;;;;5060381;28;20403;-80
2022/07/12 06:18:47;;;;;;;4.20;3.00;;;;;;;;;;5072644;28;20379;-80
2022/07/12 06:21:13;;;;;;;2.78;2.40;;;;;;;;;;5072625;28;20402;-81
2022/07/12 06:23:39;;;;;;;3.03;2.73;;;;;;;;;;5061896;28;20460;-81
2022/07/12 06:26:05;;;;;;;2.85;2.65;;;;;;;;;;5069174;28;20483;-81
2022/07/12 06:28:31;;;;;;;3.15;2.95;;;;;;;;;;5067922;28;20380;-81
2022/07/12 06:30:57;;;;;;;3.60;2.80;;;;;;;;;;5057084;28;20397;-81
2022/07/12 06:33:23;;;;;;;3.30;3.00;;;;;;;;;;5066691;28;20389;-81
2022/07/12 06:35:49;;;;;;;3.70;3.10;;;;;;;;;;5054376;28;20886;-81
2022/07/12 06:38:16;;;;;;;2.78;2.55;;;;;;;;;;5071093;28;20367;-81
2022/07/12 06:40:42;;;;;;;3.47;3.17;;;;;;;;;;5065145;28;20500;-81
2022/07/12 06:43:12;;;;;;;3.88;2.97;;;;;;;;;;5065369;28;20407;-82
2022/07/12 06:45:39;;;;;;;3.70;3.33;;;;;;;;;;5072213;28;20812;-81
2022/07/12 06:48:05;;;;;;;3.72;3.00;;;;;;;;;;5068228;28;20385;-81
2022/07/12 06:50:32;;;;;;;3.87;3.57;;;;;;;;;;5059330;28;20851;-82
2022/07/12 06:52:57;;;;;;;4.20;2.88;;;;;;;;;;5072161;28;20416;-81
2022/07/12 06:55:24;;;;;;;3.25;2.90;;;;;;;;;;5072035;28;20460;-81
2022/07/12 06:57:50;;;;;;;3.60;3.30;;;;;;;;;;5072204;28;20380;-81
2022/07/12 07:00:16;;;;;;;4.87;3.40;;;;;;;;;;5072144;28;20379;-81
2022/07/12 07:02:42;;;;;;;6.22;3.42;;;;;;;;;;5071806;28;20910;-81
2022/07/12 07:05:10;;;;;;;3.83;3.20;;;;;;;;;;5071680;28;20372;-81
2022/07/12 07:07:36;;;;;;;3.90;2.90;;;;;;;;;;5080275;28;20483;-81
2022/07/12 07:10:02;;;;;;;5.38;3.13;;;;;;;;;;5092202;28;20381;-81
2022/07/12 07:12:28;;;;;;;4.32;2.97;;;;;;;;;;5092330;28;20397;-82
2022/07/12 07:14:54;;;;;;;3.00;2.70;;;;;;;;;;5092083;28;20374;-82
2022/07/12 07:17:20;;;;;;;2.58;2.38;;;;;;;;;;5092029;28;20392;-81
2022/07/12 07:19:47;;;;;;;3.83;2.40;;;;;;;;;;5092168;28;20435;-82
2022/07/12 07:22:13;;;;;;;3.10;2.85;;;;;;;;;;5090875;28;20390;-81
2022/07/12 07:24:39;;;;;;;3.27;2.40;;;;;;;;;;5092091;28;20477;-82
2022/07/12 07:27:06;;;;;;;2.20;2.00;;;;;;;;;;5092113;28;20413;-82
2022/07/12 07:32:16;;;;;;;2.47;1.55;;;;;;;;;;5092298;28;20421;-82
2022/07/12 07:34:42;;;;;;;2.50;1.67;;;;;;;;;;5091299;28;20378;-82
2022/07/12 07:37:08;;;;;;;2.80;1.70;;;;;;;;;;5078392;28;20464;-82
2022/07/12 07:39:35;;;;;;;1.70;1.60;;;;;;;;;;5092046;28;20839;-82
2022/07/12 07:42:01;;;;;;;1.55;1.45;;;;;;;;;;5092065;28;20378;-82
2022/07/12 07:44:27;;;;;;;2.33;1.30;;;;;;;;;;5091923;28;20382;-82
2022/07/12 07:46:53;;;;;;;2.70;1.50;;;;;;;;;;5092038;28;20712;-82
2022/07/12 07:49:19;;;;;;;1.33;1.13;;;;;;;;;;5091848;28;20389;-82
2022/07/12 07:51:45;;;;;;;1.43;1.20;;;;;;;;;;5091909;28;20433;-82
2022/07/12 07:54:11;;;;;;;2.05;1.20;;;;;;;;;;5091797;28;20370;-82
2022/07/12 07:56:37;;;;;;;1.38;1.23;;;;;;;;;;5091896;28;20423;-83
2022/07/12 07:59:04;;;;;;;2.10;1.48;;;;;;;;;;5091903;28;20385;-82
2022/07/12 08:01:45;;;;;;;2.65;1.20;;;;;;;;;;5091801;28;20371;-82
2022/07/12 08:04:15;;;;;;;1.25;1.10;;;;;;;;;;5072317;28;20821;-83
2022/07/12 08:06:42;;;;;;;1.17;1.08;;;;;;;;;;5071591;28;20384;-82
2022/07/12 08:09:08;;;;;;;2.03;1.10;;;;;;;;;;5071892;28;20399;-82
2022/07/12 08:11:35;;;;;;;1.40;1.10;;;;;;;;;;5071411;28;20396;-82
2022/07/12 08:14:01;;;;;;;3.13;1.15;;;;;;;;;;5072450;28;20380;-82
2022/07/12 08:16:27;;;;;;;1.40;1.10;;;;;;;;;;5075091;28;20463;-82
2022/07/12 08:18:53;;;;;;;1.70;1.10;;;;;;;;;;5075087;28;20380;-83
2022/07/12 08:21:19;;;;;;;1.13;1.00;;;;;;;;;;5074978;28;20384;-83
2022/07/12 08:23:45;;;;;;;2.08;1.10;;;;;;;;;;5074956;28;20449;-82
2022/07/12 08:26:11;;;;;;;1.17;1.07;;;;;;;;;;5075259;28;20387;-82
2022/07/12 08:28:37;;;;;;;1.13;1.02;;;;;;;;;;5073983;28;20758;-82
2022/07/12 08:31:03;;;;;;;1.50;1.40;;;;;;;;;;5073660;28;20411;-82
2022/07/12 08:33:29;;;;;;;1.23;1.10;;;;;;;;;;5074968;28;20376;-82
2022/07/12 08:35:56;;;;;;;1.40;1.10;;;;;;;;;;5074849;28;20388;-83
2022/07/12 08:38:22;;;;;;;1.20;1.10;;;;;;;;;;5074871;28;20425;-83
2022/07/12 08:40:48;;;;;;;1.88;1.23;;;;;;;;;;5074728;28;20429;-82
2022/07/12 08:43:14;;;;;;;1.00;1.00;;;;;;;;;;5074746;28;20371;-83
2022/07/12 08:45:43;;;;;;;1.65;1.25;;;;;;;;;;5074385;28;20371;-82
2022/07/12 08:48:09;;;;;;;1.48;1.25;;;;;;;;;;5093294;28;20370;-82
2022/07/12 08:50:35;;;;;;;1.30;1.20;;;;;;;;;;5094770;28;20401;-83
2022/07/12 08:53:01;;;;;;;1.40;1.27;;;;;;;;;;5094641;28;20413;-83
2022/07/12 08:55:29;;;;;;;1.45;1.20;;;;;;;;;;5094614;28;20385;-83
2022/07/12 08:57:56;;;;;;;2.43;1.30;;;;;;;;;;5094633;28;20452;-83
2022/07/12 09:00:23;;;;;;;1.35;1.23;;;;;;;;;;5093835;28;20445;-82
2022/07/12 09:02:53;;;;;;;1.73;1.15;;;;;;;;;;5086571;28;20463;-83
2022/07/12 09:05:20;;;;;;;1.60;1.20;;;;;;;;;;5074294;28;20466;-82
2022/07/12 09:07:46;;;;;;;1.30;1.20;;;;;;;;;;5074211;28;20384;-82
2022/07/12 09:10:13;;;;;;;1.67;1.20;;;;;;;;;;5078024;28;20933;-82
2022/07/12 09:12:40;;;;;;;1.80;1.30;;;;;;;;;;5094648;28;20463;-83
2022/07/12 09:15:17;;;;;;;1.20;1.10;;;;;;;;;;5094045;28;20408;-83
2022/07/12 09:18:12;;;;;;;1.83;1.10;;;;;;;;;;5094573;28;20362;-83
2022/07/12 09:20:39;;;;;;;1.48;0.90;;;;;;;;;;5094188;28;20404;-83
2022/07/12 09:23:06;;;;;;;1.50;1.03;;;;;;;;;;5094317;28;20469;-83
2022/07/12 09:25:32;;;;;;;2.80;1.20;;;;;;;;;;5089148;28;20380;-83
2022/07/12 09:27:59;;;;;;;1.83;1.13;;;;;;;;;;5081219;28;20374;-83
2022/07/12 09:30:27;;;;;;;2.42;1.20;;;;;;;;;;5093014;28;20397;-83
2022/07/12 09:36:07;;;;;;;1.30;1.10;;;;;;;;;;5093856;28;20412;-83
2022/07/12 09:38:39;;;;;;;1.38;0.93;;;;;;;;;;5094076;28;20870;-83
2022/07/12 09:41:06;;;;;;;1.60;1.10;;;;;;;;;;5093725;28;20451;-83
2022/07/12 09:43:33;;;;;;;1.80;0.93;;;;;;;;;;5093627;28;20378;-83
2022/07/12 09:45:59;;;;;;;1.45;1.10;;;;;;;;;;5083151;28;20376;-83
2022/07/12 09:48:27;;;;;;;2.03;1.23;;;;;;;;;;5073386;28;20400;-83
2022/07/12 09:50:55;;;;;;;1.20;1.10;;;;;;;;;;5073421;28;20372;-84
2022/07/12 09:53:23;;;;;;;1.07;1.00;;;;;;;;;;5073185;28;20458;-84
2022/07/12 09:55:50;;;;;;;2.10;1.02;;;;;;;;;;5073208;28;20403;-84
2022/07/12 09:58:21;;;;;;;1.77;1.05;;;;;;;;;;5073159;28;20379;-84
2022/07/12 10:00:47;;;;;;;1.80;1.23;;;;;;;;;;5069428;28;20940;-84
2022/07/12 10:03:14;;;;;;;1.33;1.15;;;;;;;;;;5064472;28;20762;-84
2022/07/12 10:05:42;;;;;;;1.33;0.98;;;;;;;;;;5072958;28;20386;-83
2022/07/12 10:08:09;;;;;;;1.55;0.98;;;;;;;;;;5072856;28;20889;-83
2022/07/12 10:10:35;;;;;;;1.08;0.90;;;;;;;;;;5073086;28;20384;-84
2022/07/12 10:13:01;;;;;;;2.00;0.90;;;;;;;;;;5072972;28;20403;-83
2022/07/12 10:15:28;;;;;;;2.13;1.27;;;;;;;;;;5077644;28;20906;-83
2022/07/12 10:18:00;;;;;;;2.00;1.10;;;;;;;;;;5093083;28;20423;-84
2022/07/12 10:20:26;;;;;;;1.27;1.00;;;;;;;;;;5093102;28;20399;-84
2022/07/12 10:23:13;;;;;;;1.15;1.02;;;;;;;;;;5093198;28;20423;-84
2022/07/12 10:25:39;;;;;;;2.00;1.00;;;;;;;;;;5081013;28;20393;-84
2022/07/12 10:28:05;;;;;;;1.40;1.02;;;;;;;;;;5092987;28;20378;-85
2022/07/12 10:30:31;;;;;;;2.50;1.15;;;;;;;;;;5092931;28;20382;-84
2022/07/12 10:32:59;;;;;;;1.30;1.20;;;;;;;;;;5080553;28;20521;-84
2022/07/12 10:35:29;;;;;;;1.57;1.00;;;;;;;;;;5072235;28;20394;-85
2022/07/12 10:38:15;;;;;;;1.05;0.95;;;;;;;;;;5071525;28;20491;-85
2022/07/12 10:40:44;;;;;;;1.25;1.00;;;;;;;;;;5072019;28;20718;-84
2022/07/12 10:43:10;;;;;;;1.15;1.05;;;;;;;;;;5070904;28;20383;-84
2022/07/12 10:45:39;;;;;;;1.30;1.00;;;;;;;;;;5062396;28;20381;-84
2022/07/12 10:48:08;;;;;;;1.10;0.90;;;;;;;;;;5069811;28;20418;-84
2022/07/12 10:50:55;;;;;;;1.00;0.90;;;;;;;;;;5067074;28;20922;-85
2022/07/12 10:53:22;;;;;;;1.75;0.98;;;;;;;;;;5071941;28;20394;-84
2022/07/12 10:56:06;;;;;;;2.10;1.10;;;;;;;;;;5065400;28;20429;-84
2022/07/12 10:58:32;;;;;;;0.93;0.90;;;;;;;;;;5071323;28;20380;-84
2022/07/12 11:00:59;;;;;;;1.30;1.20;;;;;;;;;;5072323;28;20846;-85
2022/07/12 11:03:32;;;;;;;2.03;1.05;;;;;;;;;;5072287;28;20467;-84
2022/07/12 11:06:03;;;;;;;1.90;1.02;;;;;;;;;;5072333;28;20726;-84
2022/07/12 11:08:29;;;;;;;1.20;0.90;;;;;;;;;;5071442;28;20376;-85
2022/07/12 11:10:56;;;;;;;1.70;1.03;;;;;;;;;;5072519;28;20418;-85
2022/07/12 11:13:23;;;;;;;1.58;0.93;;;;;;;;;;5072479;28;20463;-85
2022/07/12 11:15:59;;;;;;;1.00;0.90;;;;;;;;;;5072223;28;20386;-85
2022/07/12 11:18:31;;;;;;;1.17;0.90;;;;;;;;;;5072417;28;20383;-85
2022/07/12 11:20:58;;;;;;;1.52;0.80;;;;;;;;;;5072163;28;20394;-85
2022/07/12 11:23:27;;;;;;;0.90;0.90;;;;;;;;;;5070842;28;20749;-85
2022/07/12 11:25:56;;;;;;;0.80;0.80;;;;;;;;;;5071952;28;20486;-85
2022/07/12 11:28:25;;;;;;;1.27;0.88;;;;;;;;;;5072075;28;20390;-86
2022/07/12 11:30:52;;;;;;;0.90;0.88;;;;;;;;;;5061908;28;20874;-85
2022/07/12 11:33:18;;;;;;;1.10;0.73;;;;;;;;;;5053910;28;20396;-85
2022/07/12 11:35:45;;;;;;;2.00;0.90;;;;;;;;;;5053685;28;20397;-85
2022/07/12 11:38:11;;;;;;;3.10;1.00;;;;;;;;;;5058132;28;20435;-85
2022/07/12 11:40:37;;;;;;;1.40;0.90;;;;;;;;;;5053217;28;20440;-85
2022/07/12 11:43:05;;;;;;;0.70;0.70;;;;;;;;;;5054037;28;20918;-85
2022/07/12 11:45:32;;;;;;;1.83;0.95;;;;;;;;;;5055135;28;20460;-85
2022/07/12 11:47:59;;;;;;;1.50;0.70;;;;;;;;;;5052575;28;20441;-85
2022/07/12 11:50:25;;;;;;;0.85;0.80;;;;;;;;;;5054874;28;20374;-85
2022/07/12 11:52:51;;;;;;;2.25;0.90;;;;;;;;;;5058903;28;20409;-86
2022/07/12 11:55:17;;;;;;;1.50;0.90;;;;;;;;;;5063722;28;20372;-85
2022/07/12 11:57:43;;;;;;;1.23;0.80;;;;;;;;;;5074373;28;20380;-86
2022/07/12 12:00:23;;;;;;;1.02;0.75;;;;;;;;;;5073813;28;20376;-86
2022/07/12 12:02:55;;;;;;;1.50;0.98;;;;;;;;;;5060500;28;20381;-84
2022/07/12 12:05:21;;;;;;;1.40;0.90;;;;;;;;;;5056211;28;20430;-85
2022/07/12 12:07:48;;;;;;;3.80;1.00;;;;;;;;;;5056400;28;20480;-85
2022/07/12 12:10:14;;;;;;;1.20;0.90;;;;;;;;;;5057324;28;20391;-85
2022/07/12 12:12:46;;;;;;;1.23;0.90;;;;;;;;;;5056142;28;20409;-86
2022/07/12 12:15:14;;;;;;;1.35;0.98;;;;;;;;;;5058972;28;20402;-85
2022/07/12 12:17:51;;;;;;;1.02;0.82;;;;;;;;;;5072052;28;20458;-86
2022/07/12 12:20:18;;;;;;;1.52;0.80;;;;;;;;;;5073539;28;20372;-86
2022/07/12 12:22:45;;;;;;;1.58;0.98;;;;;;;;;;5065845;28;20835;-86
2022/07/12 12:25:14;;;;;;;3.42;0.90;;;;;;;;;;5062497;28;20389;-85
2022/07/12 12:27:41;;;;;;;1.50;1.00;;;;;;;;;;5059327;28;20392;-85
2022/07/12 12:30:07;;;;;;;0.80;0.70;;;;;;;;;;5075046;28;20470;-85
2022/07/12 12:32:52;;;;;;;1.52;1.00;;;;;;;;;;5074577;28;20411;-85
2022/07/12 12:35:20;;;;;;;1.83;0.90;;;;;;;;;;5074463;28;20387;-85
2022/07/12 12:37:53;;;;;;;1.00;0.90;;;;;;;;;;5074849;28;20379;-85
2022/07/12 12:40:20;;;;;;;1.10;0.90;;;;;;;;;;5074854;28;20379;-85
2022/07/12 12:42:47;;;;;;;0.95;0.90;;;;;;;;;;5074728;28;20394;-84
2022/07/12 12:45:20;;;;;;;1.10;0.80;;;;;;;;;;5082698;28;20370;-85
2022/07/12 12:47:52;;;;;;;1.05;0.80;;;;;;;;;;5071145;28;20472;-86
2022/07/12 12:50:35;;;;;;;1.23;0.73;;;;;;;;;;5069651;28;20855;-86
2022/07/12 12:53:07;;;;;;;0.75;0.75;;;;;;;;;;5060259;28;20444;-86
2022/07/12 12:55:33;;;;;;;1.90;0.82;;;;;;;;;;5059486;28;20374;-86
2022/07/12 12:58:01;;;;;;;1.20;0.77;;;;;;;;;;5063028;28;20390;-84
2022/07/12 13:00:27;;;;;;;0.85;0.85;;;;;;;;;;5056871;28;20373;-85
2022/07/12 13:02:53;;;;;;;1.33;0.80;;;;;;;;;;5058886;28;20459;-84
2022/07/12 13:05:19;;;;;;;2.13;0.90;;;;;;;;;;5073464;28;20487;-87
2022/07/12 13:07:45;;;;;;;1.60;0.75;;;;;;;;;;5074362;28;20391;-85
2022/07/12 13:10:11;;;;;;;1.60;0.80;;;;;;;;;;5068651;28;20384;-84
2022/07/12 13:12:37;;;;;;;0.90;0.80;;;;;;;;;;5072911;28;20881;-86
2022/07/12 13:15:03;;;;;;;1.20;0.95;;;;;;;;;;5073906;28;20379;-85
2022/07/12 13:17:30;;;;;;;0.60;0.60;;;;;;;;;;5074393;28;20872;-85
2022/07/12 13:19:56;;;;;;;0.70;0.70;;;;;;;;;;5074541;28;20383;-85
2022/07/12 13:22:22;;;;;;;1.77;0.90;;;;;;;;;;5074165;28;20920;-85
2022/07/12 13:24:49;;;;;;;1.33;0.90;;;;;;;;;;5073718;28;20466;-86
2022/07/12 13:27:15;;;;;;;1.23;0.90;;;;;;;;;;5074008;28;20387;-85
2022/07/12 13:29:41;;;;;;;1.17;0.90;;;;;;;;;;5072957;28;20521;-86
2022/07/12 13:32:07;;;;;;;0.95;0.73;;;;;;;;;;5071338;28;20403;-85
2022/07/12 13:34:33;;;;;;;1.50;0.70;;;;;;;;;;5072272;28;20392;-85
2022/07/12 13:36:59;;;;;;;1.33;0.85;;;;;;;;;;5070957;28;20931;-85
2022/07/12 13:42:10;;;;;;;0.70;0.70;;;;;;;;;;5067428;28;20432;-85
2022/07/12 13:44:36;;;;;;;1.33;0.82;;;;;;;;;;5070645;28;20383;-84
2022/07/12 13:47:02;;;;;;;0.95;0.70;;;;;;;;;;5066950;28;20855;-85
2022/07/12 13:49:28;;;;;;;1.63;0.80;;;;;;;;;;5066924;28;20382;-85
2022/07/12 13:51:54;;;;;;;1.20;0.95;;;;;;;;;;5062628;28;20431;-84
2022/07/12 13:54:21;;;;;;;1.00;0.80;;;;;;;;;;5064832;28;20382;-84
2022/07/12 13:56:49;;;;;;;1.05;0.82;;;;;;;;;;5072856;28;20376;-84
2022/07/12 13:59:15;;;;;;;1.40;0.90;;;;;;;;;;5059462;28;20452;-84
2022/07/12 14:01:41;;;;;;;1.95;0.90;;;;;;;;;;5073974;28;20825;-84
2022/07/12 14:04:07;;;;;;;1.10;1.00;;;;;;;;;;5058695;28;20411;-84
2022/07/12 14:06:33;;;;;;;1.67;0.90;;;;;;;;;;5064563;28;20384;-84
2022/07/12 14:08:59;;;;;;;1.10;0.80;;;;;;;;;;5071808;28;20384;-84
2022/07/12 14:11:25;;;;;;;1.40;1.15;;;;;;;;;;5070437;28;20526;-84
2022/07/12 14:13:51;;;;;;;1.60;0.90;;;;;;;;;;5072319;28;20920;-84
2022/07/12 14:16:18;;;;;;;1.40;1.00;;;;;;;;;;5072869;28;20415;-83
2022/07/12 14:18:44;;;;;;;2.10;1.10;;;;;;;;;;5072404;28;20383;-84
2022/07/12 14:21:10;;;;;;;4.00;1.10;;;;;;;;;;5072804;28;20913;-83
2022/07/12 14:23:37;;;;;;;1.95;1.00;;;;;;;;;;5072826;28;20380;-84
2022/07/12 14:26:03;;;;;;;1.27;0.80;;;;;;;;;;5072668;28;20379;-83
2022/07/12 14:28:29;;;;;;;2.15;1.00;;;;;;;;;;5071387;28;20778;-83
2022/07/12 14:30:55;;;;;;;1.50;0.85;;;;;;;;;;5072766;28;20383;-83
2022/07/12 14:33:21;;;;;;;1.20;0.90;;;;;;;;;;5072647;28;20410;-84
2022/07/12 14:35:47;;;;;;;2.05;1.05;;;;;;;;;;5072390;28;20395;-84
2022/07/12 14:38:13;;;;;;;1.60;0.90;;;;;;;;;;5072559;28;20869;-83
2022/07/12 14:40:39;;;;;;;1.35;0.93;;;;;;;;;;5072537;28;20380;-84
2022/07/12 14:43:05;;;;;;;2.10;0.90;;;;;;;;;;5072380;28;20422;-84
2022/07/12 14:45:31;;;;;;;1.40;0.80;;;;;;;;;;5072594;28;20384;-84
2022/07/12 14:47:57;;;;;;;1.70;0.90;;;;;;;;;;5071069;28;20399;-84
2022/07/12 14:50:23;;;;;;;1.25;0.85;;;;;;;;;;5072450;28;20394;-83
2022/07/12 14:52:49;;;;;;;1.13;0.88;;;;;;;;;;5072819;28;20407;-83
2022/07/12 14:55:15;;;;;;;0.80;0.80;;;;;;;;;;5091193;28;20390;-83